createdAt,value
2018-09-23T03:14:33.120Z,14.37
2018-09-23T03:15:33.108Z,15.06
2018-09-23T03:16:33.093Z,15.24
2018-09-23T03:17:33.088Z,15.52
2018-09-23T03:18:33.079Z,15.59
2018-09-23T03:19:33.084Z,15.61
2018-09-23T03:20:33.079Z,15.61
2018-09-23T03:21:33.065Z,15.43
2018-09-23T03:22:33.062Z,15.30
2018-09-23T03:23:33.070Z,15.20
2018-09-23T03:24:33.064Z,15.42
2018-09-23T03:25:33.061Z,15.43
2018-09-23T03:26:33.053Z,15.35
2018-09-23T03:27:33.048Z,15.12
2018-09-23T03:28:33.073Z,15.49
2018-09-23T03:29:33.055Z,15.12
2018-09-23T03:30:33.039Z,14.80
2018-09-23T03:31:33.040Z,15.03
2018-09-23T03:32:33.040Z,15.39
2018-09-23T03:33:33.031Z,15.52
2018-09-23T03:34:33.035Z,15.51
2018-09-23T03:35:33.040Z,15.21
2018-09-23T03:36:33.047Z,14.80
2018-09-23T03:37:33.034Z,15.05
2018-09-23T03:38:33.046Z,15.23
2018-09-23T03:39:33.026Z,15.21
2018-09-23T03:40:33.026Z,15.46
2018-09-23T03:41:33.019Z,15.46
2018-09-23T03:42:33.028Z,14.94
2018-09-23T03:43:33.011Z,14.93
2018-09-23T03:44:33.011Z,15.06
2018-09-23T03:45:33.021Z,15.42
2018-09-23T03:46:33.021Z,15.21
2018-09-23T03:47:33.021Z,15.26
2018-09-23T03:48:33.007Z,15.28
2018-09-23T03:49:33.091Z,14.98
2018-09-23T03:50:33.003Z,15.03
2018-09-23T03:51:32.998Z,15.21
2018-09-23T03:52:32.995Z,15.13
2018-09-23T03:53:33.002Z,15.17
2018-09-23T03:54:32.995Z,15.26
2018-09-23T03:55:32.998Z,15.30
2018-09-23T03:56:33.002Z,15.31
2018-09-23T03:57:33.000Z,15.57
2018-09-23T03:58:32.994Z,15.64
2018-09-23T03:59:33.005Z,15.20
2018-09-23T04:00:32.989Z,15.30
2018-09-23T04:01:32.990Z,15.28
2018-09-23T04:02:33.001Z,15.28
2018-09-23T04:03:32.985Z,15.52
2018-09-23T04:04:32.995Z,15.46
2018-09-23T04:05:32.991Z,15.33
2018-09-23T04:06:32.989Z,15.48
2018-09-23T04:07:32.977Z,15.46
2018-09-23T04:08:32.982Z,15.43
2018-09-23T04:09:32.992Z,15.56
2018-09-23T04:10:32.973Z,15.67
2018-09-23T04:11:32.978Z,15.59
2018-09-23T04:12:32.970Z,15.41
2018-09-23T04:13:32.963Z,15.35
2018-09-23T04:14:32.980Z,15.42
2018-09-23T04:15:32.961Z,15.35
2018-09-23T04:16:32.972Z,15.35
2018-09-23T04:17:32.965Z,15.23
2018-09-23T04:18:32.984Z,15.17
2018-09-23T04:19:32.961Z,15.35
2018-09-23T04:20:32.965Z,15.31
2018-09-23T04:21:32.959Z,15.36
2018-09-23T04:22:32.975Z,15.38
2018-09-23T04:23:32.957Z,15.35
2018-09-23T04:24:32.961Z,15.46
2018-09-23T04:25:32.956Z,15.48
2018-09-23T04:26:32.945Z,15.57
2018-09-23T04:27:32.946Z,15.72
2018-09-23T04:28:32.955Z,15.56
2018-09-23T04:29:32.950Z,15.51
2018-09-23T04:30:32.965Z,15.61
2018-09-23T04:31:32.939Z,15.74
2018-09-23T04:32:32.947Z,15.81
2018-09-23T04:33:32.944Z,15.89
2018-09-23T04:34:32.944Z,15.75
2018-09-23T04:35:32.966Z,15.79
2018-09-23T04:36:32.936Z,15.68
2018-09-23T04:37:32.929Z,15.66
2018-09-23T04:38:32.941Z,15.74
2018-09-23T04:39:32.939Z,15.70
2018-09-23T04:40:32.934Z,15.82
2018-09-23T04:41:32.932Z,15.70
2018-09-23T04:42:32.933Z,15.68
2018-09-23T04:43:32.948Z,15.67
2018-09-23T04:44:32.931Z,15.68
2018-09-23T04:45:32.927Z,15.84
2018-09-23T04:46:32.931Z,15.93
2018-09-23T04:47:32.925Z,15.74
2018-09-23T04:48:32.930Z,15.82
2018-09-23T04:49:32.927Z,15.84
2018-09-23T04:50:32.915Z,15.85
2018-09-23T04:51:32.916Z,15.79
2018-09-23T04:52:32.918Z,15.85
2018-09-23T04:53:32.914Z,15.93
2018-09-23T04:54:32.917Z,15.89
2018-09-23T04:55:32.921Z,15.81
2018-09-23T04:56:32.911Z,15.86
2018-09-23T04:57:32.915Z,15.70
2018-09-23T04:58:32.906Z,15.70
2018-09-23T04:59:32.915Z,15.79
2018-09-23T05:00:32.918Z,15.76
2018-09-23T05:01:32.986Z,15.86
2018-09-23T05:02:32.901Z,15.92
2018-09-23T05:03:32.899Z,15.89
2018-09-23T05:04:32.904Z,16.01
2018-09-23T05:05:32.900Z,16.09
2018-09-23T05:06:32.948Z,15.92
2018-09-23T05:07:32.897Z,15.97
2018-09-23T05:08:32.904Z,16.06
2018-09-23T05:09:32.896Z,16.00
2018-09-23T05:10:32.897Z,16.06
2018-09-23T05:11:32.891Z,15.94
2018-09-23T05:12:32.909Z,16.07
2018-09-23T05:13:32.896Z,16.18
2018-09-23T05:14:32.899Z,16.14
2018-09-23T05:15:32.903Z,16.25
2018-09-23T05:16:32.889Z,16.14
2018-09-23T05:17:32.883Z,16.12
2018-09-23T05:18:32.878Z,16.23
2018-09-23T05:19:32.886Z,16.20
2018-09-23T05:20:32.880Z,16.26
2018-09-23T05:21:32.880Z,16.25
2018-09-23T05:22:41.523Z,16.25
2018-09-23T05:24:36.349Z,16.23
2018-09-23T05:25:27.259Z,16.34
2018-09-23T05:26:27.270Z,16.34
2018-09-23T05:27:35.914Z,16.35
2018-09-23T05:29:20.678Z,16.41
2018-09-23T05:30:29.283Z,16.37
2018-09-23T05:32:14.043Z,16.48
2018-09-23T05:33:14.042Z,16.42
2018-09-23T05:34:14.041Z,16.52
2018-09-23T05:35:14.079Z,16.42
2018-09-23T05:36:14.032Z,16.44
2018-09-23T05:37:14.027Z,16.55
2018-09-23T05:38:14.028Z,16.44
2018-09-23T05:39:14.025Z,16.63
2018-09-23T05:40:14.031Z,16.59
2018-09-23T05:41:14.027Z,16.52
2018-09-23T05:42:14.028Z,16.59
2018-09-23T05:43:14.018Z,16.60
2018-09-23T05:44:14.023Z,16.60
2018-09-23T05:45:14.017Z,16.73
2018-09-23T05:46:14.021Z,16.65
2018-09-23T05:47:14.016Z,16.68
2018-09-23T05:48:14.021Z,16.65
2018-09-23T05:49:14.017Z,16.73
2018-09-23T05:50:14.012Z,16.70
2018-09-23T05:51:14.019Z,16.71
2018-09-23T05:52:14.014Z,16.68
2018-09-23T05:53:14.074Z,16.81
2018-09-23T05:54:14.012Z,16.85
2018-09-23T05:55:14.007Z,16.86
2018-09-23T05:56:14.004Z,16.95
2018-09-23T05:57:14.006Z,16.83
2018-09-23T05:58:14.010Z,16.81
2018-09-23T05:59:14.004Z,16.86
2018-09-23T06:00:14.011Z,16.88
2018-09-23T06:01:14.004Z,16.88
2018-09-23T06:02:14.002Z,16.88
2018-09-23T06:03:14.066Z,16.95
2018-09-23T06:04:13.997Z,16.95
2018-09-23T06:05:14.008Z,16.98
2018-09-23T06:06:14.016Z,16.92
2018-09-23T06:07:14.002Z,16.96
2018-09-23T06:08:13.990Z,16.93
2018-09-23T06:09:13.991Z,16.99
2018-09-23T06:10:13.994Z,17.04
2018-09-23T06:11:14.056Z,16.98
2018-09-23T06:12:13.993Z,17.04
2018-09-23T06:13:13.994Z,17.03
2018-09-23T06:14:13.982Z,17.04
2018-09-23T06:15:13.984Z,17.07
2018-09-23T06:16:13.979Z,17.14
2018-09-23T06:17:13.987Z,17.17
2018-09-23T06:18:14.001Z,17.13
2018-09-23T06:19:13.977Z,17.14
2018-09-23T06:20:13.990Z,17.15
2018-09-23T06:21:13.981Z,17.15
2018-09-23T06:22:13.989Z,17.11
2018-09-23T06:23:13.997Z,17.22
2018-09-23T06:24:13.978Z,17.18
2018-09-23T06:25:14.049Z,17.25
2018-09-23T06:26:13.979Z,17.26
2018-09-23T06:27:13.987Z,17.29
2018-09-23T06:28:13.980Z,17.32
2018-09-23T06:29:13.978Z,17.32
2018-09-23T06:30:13.973Z,17.29
2018-09-23T06:31:14.048Z,17.32
2018-09-23T06:32:13.997Z,17.46
2018-09-23T06:33:13.981Z,17.44
2018-09-23T06:34:14.111Z,17.47
2018-09-23T06:35:13.966Z,17.44
2018-09-23T06:36:14.006Z,17.43
2018-09-23T06:37:13.968Z,17.48
2018-09-23T06:38:13.967Z,17.53
2018-09-23T06:39:13.967Z,17.54
2018-09-23T06:40:13.974Z,17.57
2018-09-23T06:41:13.964Z,17.55
2018-09-23T06:42:13.965Z,17.62
2018-09-23T06:43:13.959Z,17.71
2018-09-23T06:44:13.961Z,17.70
2018-09-23T06:45:13.973Z,17.73
2018-09-23T06:46:13.978Z,17.71
2018-09-23T06:47:13.967Z,17.84
2018-09-23T06:48:13.960Z,17.73
2018-09-23T06:49:13.999Z,17.85
2018-09-23T06:50:13.964Z,17.79
2018-09-23T06:51:14.072Z,17.89
2018-09-23T06:52:13.960Z,17.94
2018-09-23T06:53:13.967Z,17.94
2018-09-23T06:54:14.072Z,17.92
2018-09-23T06:55:13.960Z,18.03
2018-09-23T06:56:13.956Z,18.00
2018-09-23T06:57:13.997Z,18.02
2018-09-23T06:58:13.956Z,18.06
2018-09-23T06:59:13.983Z,17.97
2018-09-23T07:00:13.956Z,18.06
2018-09-23T07:01:14.106Z,18.07
2018-09-23T07:02:13.970Z,18.07
2018-09-23T07:03:13.959Z,17.97
2018-09-23T07:04:13.954Z,18.00
2018-09-23T07:05:13.966Z,18.04
2018-09-23T07:06:13.959Z,18.12
2018-09-23T07:07:13.958Z,18.29
2018-09-23T07:08:13.961Z,18.21
2018-09-23T07:09:13.965Z,18.28
2018-09-23T07:10:13.996Z,18.21
2018-09-23T07:11:13.958Z,18.29
2018-09-23T07:12:13.953Z,18.28
2018-09-23T07:13:13.949Z,18.29
2018-09-23T07:14:13.963Z,18.34
2018-09-23T07:15:13.961Z,18.36
2018-09-23T07:16:13.963Z,18.42
2018-09-23T07:17:13.960Z,18.39
2018-09-23T07:18:14.053Z,18.40
2018-09-23T07:19:13.953Z,18.43
2018-09-23T07:20:13.951Z,18.40
2018-09-23T07:21:13.952Z,18.40
2018-09-23T07:22:13.956Z,18.42
2018-09-23T07:23:13.955Z,18.58
2018-09-23T07:24:13.970Z,18.52
2018-09-23T07:25:13.952Z,18.50
2018-09-23T07:26:13.958Z,18.54
2018-09-23T07:27:13.950Z,18.59
2018-09-23T07:28:13.955Z,18.58
2018-09-23T07:29:13.950Z,18.67
2018-09-23T07:30:13.956Z,18.73
2018-09-23T07:31:13.965Z,18.62
2018-09-23T07:32:13.948Z,18.65
2018-09-23T07:33:13.951Z,18.76
2018-09-23T07:34:13.955Z,18.65
2018-09-23T07:35:13.962Z,18.61
2018-09-23T07:36:13.955Z,18.57
2018-09-23T07:37:14.001Z,18.54
2018-09-23T07:38:13.965Z,18.54
2018-09-23T07:39:13.973Z,18.52
2018-09-23T07:40:13.959Z,18.55
2018-09-23T07:41:13.948Z,18.55
2018-09-23T07:42:13.958Z,18.59
2018-09-23T07:43:13.959Z,18.52
2018-09-23T07:44:13.956Z,18.46
2018-09-23T07:45:13.959Z,18.46
2018-09-23T07:46:13.953Z,18.55
2018-09-23T07:47:13.950Z,18.47
2018-09-23T07:48:13.953Z,18.43
2018-09-23T07:49:13.951Z,18.49
2018-09-23T07:50:13.958Z,18.49
2018-09-23T07:51:13.961Z,18.55
2018-09-23T07:52:13.956Z,18.54
2018-09-23T07:53:13.959Z,18.57
2018-09-23T07:54:13.952Z,18.62
2018-09-23T07:55:13.961Z,18.47
2018-09-23T07:56:13.955Z,18.59
2018-09-23T07:57:13.964Z,18.64
2018-09-23T07:58:13.952Z,18.47
2018-09-23T07:59:14.053Z,18.57
2018-09-23T08:00:13.956Z,18.50
2018-09-23T08:01:13.962Z,18.54
2018-09-23T08:02:13.977Z,18.65
2018-09-23T08:03:13.955Z,18.68
2018-09-23T08:04:13.959Z,18.67
2018-09-23T08:05:13.975Z,18.72
2018-09-23T08:06:13.960Z,18.73
2018-09-23T08:07:13.960Z,18.76
2018-09-23T08:08:13.956Z,18.77
2018-09-23T08:09:13.972Z,18.80
2018-09-23T08:10:13.971Z,18.73
2018-09-23T08:11:13.971Z,18.90
2018-09-23T08:12:13.995Z,18.95
2018-09-23T08:13:14.075Z,19.11
2018-09-23T08:14:14.342Z,19.05
2018-09-23T08:15:13.962Z,19.11
2018-09-23T08:16:13.969Z,19.15
2018-09-23T08:17:14.021Z,19.15
2018-09-23T08:18:13.976Z,19.23
2018-09-23T08:19:14.031Z,19.31
2018-09-23T08:20:14.129Z,19.31
2018-09-23T08:22:35.582Z,19.32
2018-09-23T08:23:35.024Z,19.36
2018-09-23T08:24:43.646Z,19.38
2018-09-23T08:26:28.470Z,19.39
2018-09-23T08:27:28.403Z,19.33
2018-09-23T08:28:28.396Z,19.42
2018-09-23T08:29:28.591Z,19.39
2018-09-23T08:30:28.409Z,19.32
2018-09-23T08:31:28.403Z,19.33
2018-09-23T08:32:28.426Z,19.21
2018-09-23T08:33:28.420Z,19.32
2018-09-23T08:34:28.417Z,19.33
2018-09-23T08:35:28.454Z,19.33
2018-09-23T08:36:28.414Z,19.36
2018-09-23T08:37:28.491Z,19.29
2018-09-23T08:38:28.416Z,19.35
2018-09-23T08:39:28.410Z,19.25
2018-09-23T08:40:28.456Z,19.14
2018-09-23T08:41:28.449Z,19.25
2018-09-23T08:42:28.418Z,18.98
2018-09-23T08:43:28.412Z,19.05
2018-09-23T08:44:28.410Z,18.92
2018-09-23T08:45:28.415Z,18.86
2018-09-23T08:46:28.424Z,18.91
2018-09-23T08:47:28.410Z,18.94
2018-09-23T08:48:28.514Z,18.95
2018-09-23T08:49:28.436Z,18.94
2018-09-23T08:50:28.412Z,19.02
2018-09-23T08:51:28.427Z,18.95
2018-09-23T08:52:28.417Z,19.01
2018-09-23T08:53:28.420Z,18.97
2018-09-23T08:54:28.416Z,19.05
2018-09-23T08:55:28.418Z,19.08
2018-09-23T08:56:28.426Z,19.13
2018-09-23T08:57:28.429Z,19.11
2018-09-23T08:58:28.429Z,19.23
2018-09-23T08:59:28.429Z,19.15
2018-09-23T09:00:28.432Z,19.08
2018-09-23T09:01:28.435Z,19.18
2018-09-23T09:02:28.426Z,19.17
2018-09-23T09:03:28.437Z,19.15
2018-09-23T09:04:28.430Z,19.18
2018-09-23T09:05:28.449Z,19.21
2018-09-23T09:06:28.424Z,19.29
2018-09-23T09:07:28.428Z,19.24
2018-09-23T09:08:28.432Z,19.28
2018-09-23T09:09:28.429Z,19.32
2018-09-23T09:10:28.439Z,19.33
2018-09-23T09:11:28.480Z,19.35
2018-09-23T09:12:28.438Z,19.43
2018-09-23T09:13:28.444Z,19.33
2018-09-23T09:14:28.458Z,19.40
2018-09-23T09:15:28.441Z,19.42
2018-09-23T09:16:28.448Z,19.39
2018-09-23T09:17:28.435Z,19.53
2018-09-23T09:18:28.516Z,19.58
2018-09-23T09:19:28.439Z,19.54
2018-09-23T09:20:28.443Z,19.57
2018-09-23T09:21:28.437Z,19.60
2018-09-23T09:22:28.443Z,19.60
2018-09-23T09:23:28.442Z,19.51
2018-09-23T09:24:28.524Z,19.36
2018-09-23T09:25:28.439Z,19.55
2018-09-23T09:26:28.466Z,19.58
2018-09-23T09:27:28.472Z,19.55
2018-09-23T09:28:28.445Z,19.54
2018-09-23T09:29:28.445Z,19.55
2018-09-23T09:30:28.446Z,19.61
2018-09-23T09:31:28.476Z,19.66
2018-09-23T09:32:28.448Z,19.66
2018-09-23T09:33:28.453Z,19.70
2018-09-23T09:34:28.457Z,19.72
2018-09-23T09:35:28.465Z,19.75
2018-09-23T09:36:28.476Z,19.63
2018-09-23T09:37:28.465Z,19.61
2018-09-23T09:38:28.544Z,19.58
2018-09-23T09:39:28.461Z,19.61
2018-09-23T09:40:28.458Z,19.66
2018-09-23T09:41:28.458Z,19.66
2018-09-23T09:42:28.492Z,19.72
2018-09-23T09:43:28.515Z,19.69
2018-09-23T09:44:28.464Z,19.70
2018-09-23T09:45:28.459Z,19.73
2018-09-23T09:46:28.490Z,19.78
2018-09-23T09:47:28.504Z,19.70
2018-09-23T09:48:28.469Z,19.72
2018-09-23T09:49:28.473Z,19.72
2018-09-23T09:50:28.493Z,19.80
2018-09-23T09:51:28.472Z,19.90
2018-09-23T09:52:28.475Z,19.88
2018-09-23T09:53:28.492Z,19.86
2018-09-23T09:54:28.474Z,19.84
2018-09-23T09:55:28.508Z,19.73
2018-09-23T09:56:28.481Z,19.90
2018-09-23T09:57:28.474Z,19.80
2018-09-23T09:58:28.480Z,19.83
2018-09-23T09:59:28.498Z,19.83
2018-09-23T10:00:28.492Z,19.75
2018-09-23T10:01:28.480Z,19.73
2018-09-23T10:02:28.484Z,19.80
2018-09-23T10:03:28.497Z,19.87
2018-09-23T10:04:28.603Z,19.87
2018-09-23T10:05:28.534Z,19.87
2018-09-23T10:06:28.529Z,19.83
2018-09-23T10:07:28.492Z,19.84
2018-09-23T10:08:28.493Z,19.88
2018-09-23T10:09:28.516Z,19.80
2018-09-23T10:10:28.484Z,19.76
2018-09-23T10:11:28.530Z,19.97
2018-09-23T10:12:28.505Z,19.94
2018-09-23T10:13:28.533Z,20.09
2018-09-23T10:14:28.502Z,20.08
2018-09-23T10:15:28.495Z,20.06
2018-09-23T10:16:28.506Z,20.00
2018-09-23T10:17:28.514Z,20.09
2018-09-23T10:18:28.510Z,20.16
2018-09-23T10:19:28.509Z,20.28
2018-09-23T10:20:28.527Z,20.21
2018-09-23T10:21:28.510Z,20.42
2018-09-23T10:22:28.636Z,20.50
2018-09-23T10:23:28.680Z,20.42
2018-09-23T10:24:28.513Z,20.46
2018-09-23T10:25:28.510Z,20.49
2018-09-23T10:26:28.515Z,20.51
2018-09-23T10:27:28.527Z,20.50
2018-09-23T10:28:28.512Z,20.71
2018-09-23T10:29:28.515Z,20.72
2018-09-23T10:30:28.538Z,20.74
2018-09-23T10:31:28.591Z,20.56
2018-09-23T10:32:28.525Z,20.62
2018-09-23T10:33:28.525Z,20.61
2018-09-23T10:34:28.523Z,20.64
2018-09-23T10:35:28.554Z,20.72
2018-09-23T10:36:28.530Z,20.77
2018-09-23T10:37:28.565Z,20.58
2018-09-23T10:38:28.538Z,20.66
2018-09-23T10:39:28.561Z,20.77
2018-09-23T10:40:28.545Z,20.77
2018-09-23T10:41:28.557Z,20.86
2018-09-23T10:42:28.635Z,20.71
2018-09-23T10:43:28.627Z,20.79
2018-09-23T10:44:28.671Z,20.79
2018-09-23T10:45:28.734Z,20.68
2018-09-23T10:46:28.621Z,20.76
2018-09-23T10:47:28.621Z,20.76
2018-09-23T10:48:28.555Z,20.95
2018-09-23T10:49:28.564Z,20.98
2018-09-23T10:50:28.576Z,20.96
2018-09-23T10:51:28.609Z,21.01
2018-09-23T10:52:28.614Z,20.95
2018-09-23T10:53:28.562Z,20.98
2018-09-23T10:54:28.584Z,21.05
2018-09-23T10:55:28.576Z,20.96
2018-09-23T10:56:28.568Z,20.90
2018-09-23T10:57:28.577Z,20.90
2018-09-23T10:58:28.570Z,20.80
2018-09-23T10:59:28.599Z,20.86
2018-09-23T11:00:28.568Z,20.93
2018-09-23T11:01:28.580Z,20.93
2018-09-23T11:02:28.574Z,20.95
2018-09-23T11:03:28.588Z,21.04
2018-09-23T11:04:28.581Z,21.13
2018-09-23T11:05:28.584Z,21.13
2018-09-23T11:06:28.591Z,21.06
2018-09-23T11:07:28.668Z,21.17
2018-09-23T11:08:28.589Z,21.19
2018-09-23T11:09:28.592Z,21.09
2018-09-23T11:10:38.717Z,21.06
2018-09-23T11:12:22.057Z,21.06
2018-09-23T11:13:22.046Z,21.23
2018-09-23T11:14:22.030Z,21.19
2018-09-23T11:15:22.041Z,21.26
2018-09-23T11:16:22.077Z,21.21
2018-09-23T11:17:22.030Z,21.27
2018-09-23T11:18:22.038Z,21.34
2018-09-23T11:19:22.038Z,21.27
2018-09-23T11:20:22.033Z,21.27
2018-09-23T11:21:22.050Z,21.53
2018-09-23T11:22:22.041Z,21.46
2018-09-23T11:23:22.145Z,21.50
2018-09-23T11:24:22.051Z,21.56
2018-09-23T11:25:22.068Z,21.64
2018-09-23T11:26:22.045Z,21.67
2018-09-23T11:27:22.048Z,21.50
2018-09-23T11:28:22.046Z,21.44
2018-09-23T11:29:22.053Z,21.59
2018-09-23T11:30:22.054Z,21.67
2018-09-23T11:31:22.089Z,21.76
2018-09-23T11:32:22.176Z,21.63
2018-09-23T11:33:22.064Z,21.66
2018-09-23T11:34:22.087Z,21.71
2018-09-23T11:35:22.070Z,21.74
2018-09-23T11:36:22.084Z,21.56
2018-09-23T11:37:22.074Z,21.76
2018-09-23T11:38:22.072Z,21.82
2018-09-23T11:39:22.136Z,21.81
2018-09-23T11:40:22.080Z,21.76
2018-09-23T11:41:22.083Z,21.88
2018-09-23T11:42:22.121Z,21.91
2018-09-23T11:43:22.105Z,21.95
2018-09-23T11:44:22.180Z,21.94
2018-09-23T11:45:22.090Z,21.78
2018-09-23T11:46:22.244Z,21.82
2018-09-23T11:47:22.362Z,21.74
2018-09-23T11:48:22.198Z,22.02
2018-09-23T11:49:22.202Z,22.09
2018-09-23T11:50:22.178Z,21.92
2018-09-23T11:51:22.102Z,22.07
2018-09-23T11:52:22.136Z,22.04
2018-09-23T11:53:22.161Z,22.13
2018-09-23T11:54:22.122Z,22.06
2018-09-23T11:55:22.130Z,22.09
2018-09-23T11:56:22.140Z,22.14
2018-09-23T11:57:22.151Z,22.06
2018-09-23T11:58:22.147Z,22.27
2018-09-23T11:59:22.179Z,22.47
2018-09-23T12:00:22.181Z,22.44
2018-09-23T12:01:22.186Z,22.37
2018-09-23T12:02:22.298Z,22.28
2018-09-23T12:03:22.213Z,22.28
2018-09-23T12:04:22.148Z,22.43
2018-09-23T12:05:22.197Z,22.34
2018-09-23T12:06:22.172Z,22.46
2018-09-23T12:07:22.193Z,22.31
2018-09-23T12:08:22.158Z,22.41
2018-09-23T12:09:22.244Z,22.32
2018-09-23T12:10:22.425Z,22.44
2018-09-23T12:11:22.214Z,22.52
2018-09-23T12:12:22.204Z,22.52
2018-09-23T12:13:22.215Z,22.47
2018-09-23T12:14:22.211Z,22.56
2018-09-23T12:15:22.166Z,22.72
2018-09-23T12:16:22.181Z,22.75
2018-09-23T12:17:22.177Z,22.86
2018-09-23T12:18:22.201Z,22.87
2018-09-23T12:19:22.249Z,22.83
2018-09-23T12:20:22.211Z,22.78
2018-09-23T12:21:22.203Z,22.84
2018-09-23T12:22:22.197Z,23.04
2018-09-23T12:23:22.227Z,22.99
2018-09-23T12:24:22.197Z,22.89
2018-09-23T12:25:22.209Z,23.11
2018-09-23T12:26:22.217Z,22.96
2018-09-23T12:27:22.221Z,23.08
2018-09-23T12:28:22.223Z,23.08
2018-09-23T12:29:22.218Z,23.08
2018-09-23T12:30:22.218Z,23.20
2018-09-23T12:31:22.223Z,23.20
2018-09-23T12:32:22.226Z,23.02
2018-09-23T12:33:22.275Z,22.87
2018-09-23T12:34:22.233Z,22.87
2018-09-23T12:35:22.238Z,22.92
2018-09-23T12:36:22.270Z,23.04
2018-09-23T12:37:22.255Z,23.07
2018-09-23T12:38:22.247Z,23.14
2018-09-23T12:39:22.277Z,23.05
2018-09-23T12:40:22.249Z,23.24
2018-09-23T12:41:22.279Z,23.42
2018-09-23T12:42:22.273Z,23.24
2018-09-23T12:43:22.269Z,23.35
2018-09-23T12:44:22.259Z,23.39
2018-09-23T12:45:22.264Z,23.40
2018-09-23T12:46:22.273Z,23.19
2018-09-23T12:47:22.283Z,23.40
2018-09-23T12:48:22.312Z,23.50
2018-09-23T12:49:22.325Z,23.40
2018-09-23T12:50:22.283Z,23.24
2018-09-23T12:51:22.310Z,23.27
2018-09-23T12:52:22.292Z,23.32
2018-09-23T12:53:22.392Z,23.35
2018-09-23T12:54:22.302Z,23.38
2018-09-23T12:55:22.307Z,23.32
2018-09-23T12:56:22.310Z,23.40
2018-09-23T12:57:22.314Z,23.40
2018-09-23T12:58:22.316Z,23.43
2018-09-23T12:59:22.329Z,23.43
2018-09-23T13:00:22.329Z,23.50
2018-09-23T13:01:22.344Z,23.53
2018-09-23T13:02:22.405Z,23.42
2018-09-23T13:03:22.335Z,23.49
2018-09-23T13:04:22.342Z,23.57
2018-09-23T13:05:22.339Z,23.45
2018-09-23T13:06:22.339Z,23.42
2018-09-23T13:07:22.363Z,23.57
2018-09-23T13:08:22.348Z,23.45
2018-09-23T13:09:22.357Z,23.45
2018-09-23T13:10:22.349Z,23.70
2018-09-23T13:11:22.354Z,23.76
2018-09-23T13:12:22.356Z,23.82
2018-09-23T13:13:22.361Z,23.65
2018-09-23T13:14:22.371Z,23.75
2018-09-23T13:15:22.368Z,23.68
2018-09-23T13:16:22.370Z,23.61
2018-09-23T13:17:22.616Z,23.47
2018-09-23T13:18:22.436Z,23.53
2018-09-23T13:19:22.420Z,23.47
2018-09-23T13:20:22.392Z,23.60
2018-09-23T13:21:22.388Z,23.75
2018-09-23T13:22:22.409Z,23.71
2018-09-23T13:23:22.397Z,23.65
2018-09-23T13:24:22.404Z,23.64
2018-09-23T13:25:22.404Z,23.65
2018-09-23T13:26:22.409Z,23.58
2018-09-23T13:27:22.442Z,23.75
2018-09-23T13:28:22.424Z,23.70
2018-09-23T13:29:22.417Z,23.77
2018-09-23T13:30:22.428Z,23.79
2018-09-23T13:31:22.430Z,23.79
2018-09-23T13:32:22.438Z,23.75
2018-09-23T13:33:22.440Z,23.76
2018-09-23T13:34:22.450Z,23.68
2018-09-23T13:35:22.462Z,23.65
2018-09-23T13:36:22.456Z,23.65
2018-09-23T13:37:22.462Z,23.61
2018-09-23T13:38:22.459Z,23.83
2018-09-23T13:39:22.468Z,23.67
2018-09-23T13:40:22.461Z,23.79
2018-09-23T13:41:22.467Z,23.71
2018-09-23T13:42:22.481Z,23.86
2018-09-23T13:43:22.498Z,23.77
2018-09-23T13:44:22.507Z,23.70
2018-09-23T13:45:22.507Z,23.65
2018-09-23T13:46:22.495Z,23.68
2018-09-23T13:47:22.508Z,23.70
2018-09-23T13:48:22.501Z,23.65
2018-09-23T13:49:22.515Z,23.76
2018-09-23T13:50:22.537Z,23.77
2018-09-23T13:51:22.515Z,23.83
2018-09-23T13:52:22.526Z,23.72
2018-09-23T13:53:22.517Z,23.85
2018-09-23T13:54:22.540Z,23.71
2018-09-23T13:55:22.522Z,23.82
2018-09-23T13:56:22.566Z,23.83
2018-09-23T13:57:22.586Z,23.95
2018-09-23T13:58:22.549Z,23.89
2018-09-23T13:59:22.590Z,23.87
2018-09-23T14:00:22.583Z,23.94
2018-09-23T14:01:22.556Z,23.89
2018-09-23T14:02:22.565Z,23.89
2018-09-23T14:03:22.602Z,23.86
2018-09-23T14:04:22.561Z,23.83
2018-09-23T14:05:22.575Z,23.87
2018-09-23T14:06:22.590Z,23.77
2018-09-23T14:07:22.601Z,23.92
2018-09-23T14:08:22.598Z,23.94
2018-09-23T14:09:22.585Z,23.92
2018-09-23T14:10:22.587Z,23.97
2018-09-23T14:11:22.608Z,23.86
2018-09-23T14:12:22.619Z,23.80
2018-09-23T14:13:22.600Z,23.83
2018-09-23T14:14:22.610Z,24.01
2018-09-23T14:15:22.604Z,23.87
2018-09-23T14:16:22.615Z,23.85
2018-09-23T14:17:22.610Z,23.80
2018-09-23T14:18:22.638Z,23.68
2018-09-23T14:19:22.706Z,23.65
2018-09-23T14:20:22.663Z,23.72
2018-09-23T14:21:22.629Z,23.57
2018-09-23T14:22:22.663Z,23.52
2018-09-23T14:23:22.659Z,23.49
2018-09-23T14:24:22.665Z,23.38
2018-09-23T14:25:22.645Z,23.22
2018-09-23T14:26:22.677Z,23.19
2018-09-23T14:27:22.647Z,23.14
2018-09-23T14:28:22.668Z,23.09
2018-09-23T14:29:22.656Z,22.83
2018-09-23T14:30:22.665Z,22.67
2018-09-23T14:31:22.679Z,22.71
2018-09-23T14:32:22.720Z,22.69
2018-09-23T14:33:22.681Z,22.67
2018-09-23T14:34:22.668Z,22.60
2018-09-23T14:35:22.763Z,22.56
2018-09-23T14:36:22.689Z,22.53
2018-09-23T14:37:22.706Z,22.56
2018-09-23T14:38:22.707Z,22.50
2018-09-23T14:40:54.345Z,22.39
2018-09-23T14:41:54.351Z,22.43
2018-09-23T14:43:47.758Z,22.39
2018-09-23T14:44:47.771Z,22.49
2018-09-23T14:45:47.772Z,22.44
2018-09-23T14:46:47.772Z,22.41
2018-09-23T14:47:47.772Z,22.41
2018-09-23T14:48:47.767Z,22.53
2018-09-23T14:49:47.776Z,22.53
2018-09-23T14:50:47.769Z,22.41
2018-09-23T14:51:47.765Z,22.47
2018-09-23T14:52:47.771Z,22.47
2018-09-23T14:53:47.774Z,22.57
2018-09-23T14:54:48.444Z,22.57
2018-09-23T14:55:48.294Z,22.62
2018-09-23T14:56:47.789Z,22.67
2018-09-23T14:57:47.783Z,22.64
2018-09-23T14:58:47.785Z,22.71
2018-09-23T14:59:47.857Z,22.72
2018-09-23T15:00:47.802Z,22.71
2018-09-23T15:01:47.810Z,22.74
2018-09-23T15:02:47.817Z,22.68
2018-09-23T15:03:47.818Z,22.80
2018-09-23T15:04:47.822Z,22.87
2018-09-23T15:05:47.815Z,22.80
2018-09-23T15:06:47.814Z,22.82
2018-09-23T15:07:47.814Z,22.80
2018-09-23T15:08:47.827Z,22.83
2018-09-23T15:09:47.819Z,22.92
2018-09-23T15:10:47.823Z,22.89
2018-09-23T15:11:47.825Z,22.80
2018-09-23T15:12:47.851Z,22.75
2018-09-23T15:13:47.883Z,22.80
2018-09-23T15:14:47.830Z,22.74
2018-09-23T15:15:47.840Z,22.82
2018-09-23T15:16:47.851Z,22.82
2018-09-23T15:17:47.841Z,22.84
2018-09-23T15:18:47.848Z,22.83
2018-09-23T15:19:47.868Z,22.77
2018-09-23T15:20:47.857Z,22.62
2018-09-23T15:21:47.980Z,22.67
2018-09-23T15:22:47.864Z,22.67
2018-09-23T15:23:47.867Z,22.67
2018-09-23T15:24:47.859Z,22.62
2018-09-23T15:25:47.871Z,22.53
2018-09-23T15:26:47.876Z,22.60
2018-09-23T15:27:47.897Z,22.65
2018-09-23T15:28:47.877Z,22.54
2018-09-23T15:29:47.876Z,22.60
2018-09-23T15:30:47.902Z,22.57
2018-09-23T15:31:47.894Z,22.57
2018-09-23T15:32:47.890Z,22.59
2018-09-23T15:33:47.893Z,22.60
2018-09-23T15:34:47.903Z,22.69
2018-09-23T15:35:47.918Z,22.78
2018-09-23T15:36:47.922Z,22.74
2018-09-23T15:37:47.906Z,22.82
2018-09-23T15:38:47.931Z,22.84
2018-09-23T15:39:47.921Z,22.92
2018-09-23T15:40:47.927Z,22.83
2018-09-23T15:41:47.917Z,22.83
2018-09-23T15:42:47.922Z,22.92
2018-09-23T15:43:47.959Z,22.87
2018-09-23T15:44:47.922Z,22.89
2018-09-23T15:45:47.928Z,23.01
2018-09-23T15:46:47.972Z,22.89
2018-09-23T15:47:48.008Z,22.93
2018-09-23T15:48:47.961Z,23.12
2018-09-23T15:49:47.939Z,23.14
2018-09-23T15:50:47.980Z,23.09
2018-09-23T15:51:47.973Z,23.14
2018-09-23T15:52:47.959Z,23.08
2018-09-23T15:53:47.954Z,23.19
2018-09-23T15:54:48.036Z,23.05
2018-09-23T15:55:47.987Z,22.93
2018-09-23T15:56:47.965Z,22.87
2018-09-23T15:57:48.036Z,22.90
2018-09-23T15:58:48.005Z,22.83
2018-09-23T15:59:48.013Z,22.50
2018-09-23T16:00:47.979Z,21.98
2018-09-23T16:01:48.007Z,21.76
2018-09-23T16:02:48.044Z,21.57
2018-09-23T16:03:48.064Z,21.39
2018-09-23T16:04:48.018Z,21.13
2018-09-23T16:05:48.037Z,20.81
2018-09-23T16:06:48.047Z,20.74
2018-09-23T16:07:48.029Z,20.76
2018-09-23T16:08:48.001Z,20.81
2018-09-23T16:09:48.002Z,20.59
2018-09-23T16:10:48.078Z,20.72
2018-09-23T16:11:48.512Z,20.90
2018-09-23T16:12:48.171Z,20.90
2018-09-23T16:13:48.064Z,20.69
2018-09-23T16:14:48.083Z,20.51